Time;durP1;ratioP1;P1;durP2;ratioP2;P2;SDS_P1;SDS_P2;PMS_P1;PMS_P2;Temp;Humidity;BMP_temperature;BMP_pressure;BME280_temperature;BME280_humidity;BME280_pressure;Samples;Min_cycle;Max_cycle;Signal;HPM_P1;HPM_P2
2023/07/02 00:00:32;;;;;;;;;31.50;30.50;;;;;20.26;100.00;98613.53;6287046;20;2616014;-50
2023/07/02 00:03:01;;;;;;;;;27.00;26.33;;;;;20.33;100.00;98615.34;6282391;20;3580606;-48
2023/07/02 00:05:30;;;;;;;;;26.00;26.00;;;;;20.44;100.00;98608.59;6284131;20;3585923;-47
2023/07/02 00:07:58;;;;;;;;;30.00;28.67;;;;;20.48;99.76;98603.59;6284883;20;3579619;-48
2023/07/02 00:10:27;;;;;;;;;30.67;29.67;;;;;20.49;99.39;98599.88;6285043;20;3594001;-48
2023/07/02 00:12:55;;;;;;;;;32.33;29.67;;;;;20.69;99.20;98600.19;6285090;20;3588798;-47
2023/07/02 00:15:23;;;;;;;;;31.00;30.00;;;;;20.85;97.54;98610.09;6283596;20;3596099;-48
2023/07/02 00:17:51;;;;;;;;;32.67;29.67;;;;;20.70;98.68;98597.31;6282941;20;3588774;-51
2023/07/02 00:20:19;;;;;;;;;32.00;29.00;;;;;20.78;98.34;98594.50;6283544;20;3600375;-48
2023/07/02 00:22:49;;;;;;;;;33.00;31.33;;;;;20.75;98.28;98604.94;6283684;20;3606697;-48
2023/07/02 00:25:17;;;;;;;;;31.00;30.00;;;;;20.79;98.61;98596.16;6285567;20;3602362;-48
2023/07/02 00:27:45;;;;;;;;;33.67;31.00;;;;;20.77;99.06;98598.25;6283080;20;3597134;-50
2023/07/02 00:30:14;;;;;;;;;35.33;31.33;;;;;20.79;98.25;98595.31;6280966;20;3599208;-50
2023/07/02 00:32:42;;;;;;;;;37.00;31.00;;;;;20.95;97.50;98594.31;6281225;20;3612918;-48
2023/07/02 00:35:10;;;;;;;;;31.00;29.00;;;;;20.81;98.49;98588.66;6284629;20;3578495;-50
2023/07/02 00:37:39;;;;;;;;;31.67;29.67;;;;;20.85;97.94;98593.72;6284189;20;3588926;-48
2023/07/02 00:40:08;;;;;;;;;30.33;29.67;;;;;20.87;97.69;98591.66;6283774;20;3583611;-49
2023/07/02 00:42:36;;;;;;;;;33.67;29.67;;;;;20.79;97.88;98590.72;6283673;20;3596058;-49
2023/07/02 00:45:06;;;;;;;;;34.33;30.67;;;;;20.89;98.15;98595.91;6281842;20;3597233;-47
2023/07/02 00:47:35;;;;;;;;;34.33;32.33;;;;;20.77;98.47;98592.81;6282504;20;3594133;-47
2023/07/02 00:50:05;;;;;;;;;37.33;31.67;;;;;20.94;97.15;98598.91;6280710;20;3596111;-46
2023/07/02 00:52:33;;;;;;;;;35.33;32.00;;;;;20.95;97.32;98599.75;6280253;20;3586832;-49
2023/07/02 00:55:02;;;;;;;;;29.00;28.00;;;;;20.92;97.84;98594.69;6285087;20;3587827;-46
2023/07/02 00:57:32;;;;;;;;;31.00;29.67;;;;;20.78;98.29;98589.03;6283375;20;3587805;-49
2023/07/02 01:00:00;;;;;;;;;31.33;29.67;;;;;20.80;97.70;98597.88;6285005;20;3598183;-47
2023/07/02 01:02:29;;;;;;;;;27.67;27.67;;;;;20.71;97.16;98607.16;6282200;20;3589877;-49
2023/07/02 01:04:59;;;;;;;;;30.67;26.00;;;;;20.33;98.13;98598.97;6285650;20;3592031;-47
2023/07/02 01:07:29;;;;;;;;;28.00;26.00;;;;;20.18;99.88;98603.53;6281909;20;3575304;-49
2023/07/02 01:09:57;;;;;;;;;34.33;30.33;;;;;20.18;100.00;98593.47;6281326;20;3598168;-49
2023/07/02 01:12:27;;;;;;;;;29.33;29.00;;;;;20.15;100.00;98598.44;6282319;20;3591918;-45
2023/07/02 01:15:01;;;;;;;;;33.00;32.00;;;;;20.38;100.00;98592.97;6280427;20;3606528;-50
2023/07/02 01:17:39;;;;;;;;;32.33;30.67;;;;;20.27;99.78;98588.78;6280906;20;3606568;-49
2023/07/02 01:20:10;;;;;;;;;31.67;30.00;;;;;20.38;99.86;98587.53;6279433;20;3588870;-48
2023/07/02 01:22:38;;;;;;;;;33.33;31.00;;;;;20.31;99.85;98587.41;6281473;20;3604465;-49
2023/07/02 01:25:08;;;;;;;;;29.67;28.67;;;;;20.05;100.00;98576.88;6280879;20;3587849;-49
2023/07/02 01:27:37;;;;;;;;;35.00;32.67;;;;;20.20;100.00;98585.13;6281612;20;3599367;-49
2023/07/02 01:30:08;;;;;;;;;33.67;31.00;;;;;19.77;100.00;98587.47;6278204;20;3604438;-52
2023/07/02 01:32:38;;;;;;;;;29.33;29.00;;;;;19.76;100.00;98588.50;6318561;20;3592992;-51
2023/07/02 01:35:08;;;;;;;;;30.67;29.67;;;;;19.66;100.00;98590.56;6284521;20;3597196;-45
2023/07/02 01:37:39;;;;;;;;;37.33;32.67;;;;;19.64;100.00;98584.47;6284212;20;3607516;-47
2023/07/02 01:40:08;;;;;;;;;34.33;30.33;;;;;19.52;100.00;98593.03;6276414;20;3597136;-48
2023/07/02 01:42:37;;;;;;;;;31.67;30.67;;;;;19.39;100.00;98586.47;6282862;20;3591904;-46
2023/07/02 01:45:05;;;;;;;;;36.00;32.67;;;;;19.67;100.00;98595.06;6287825;20;3591923;-46
2023/07/02 01:47:34;;;;;;;;;31.33;29.67;;;;;19.72;100.00;98592.59;6281874;20;3602419;-46
2023/07/02 01:50:05;;;;;;;;;32.67;31.00;;;;;19.62;100.00;98590.09;6319591;20;3601765;-48
2023/07/02 01:52:33;;;;;;;;;35.00;32.67;;;;;19.27;100.00;98584.16;6286481;20;3604816;-47
2023/07/02 01:55:02;;;;;;;;;31.67;30.67;;;;;19.32;100.00;98580.88;6287593;20;3602363;-47
2023/07/02 01:57:30;;;;;;;;;34.67;32.00;;;;;19.42;100.00;98580.69;6288159;20;3605525;-46
2023/07/02 01:59:59;;;;;;;;;40.00;33.33;;;;;19.54;100.00;98590.16;6283975;20;3599254;-48
2023/07/02 02:02:27;;;;;;;;;34.33;31.33;;;;;19.53;100.00;98586.56;6313730;20;3601763;-48
2023/07/02 02:04:56;;;;;;;;;39.00;34.33;;;;;19.64;100.00;98587.19;6283031;20;3603407;-47
2023/07/02 02:07:25;;;;;;;;;37.67;33.33;;;;;19.70;100.00;98581.91;6284147;20;3592016;-47
2023/07/02 02:09:54;;;;;;;;;37.33;33.00;;;;;19.52;100.00;98576.69;6288875;20;3594083;-49
2023/07/02 02:12:22;;;;;;;;;37.00;32.67;;;;;19.82;100.00;98582.31;6286160;20;3590885;-47
2023/07/02 02:14:50;;;;;;;;;35.33;32.00;;;;;19.91;100.00;98583.13;6286010;20;3585747;-55
2023/07/02 02:17:19;;;;;;;;;33.33;31.00;;;;;19.85;100.00;98573.81;6284258;20;3602477;-54
2023/07/02 02:19:48;;;;;;;;;35.67;32.67;;;;;19.93;100.00;98581.94;6318705;20;3583702;-54
2023/07/02 02:22:17;;;;;;;;;35.33;33.00;;;;;19.88;100.00;98578.91;6284284;20;2857659;-52
2023/07/02 02:24:45;;;;;;;;;40.00;34.67;;;;;19.83;100.00;98573.16;6317885;20;3609656;-51
2023/07/02 02:27:13;;;;;;;;;40.33;34.33;;;;;19.85;100.00;98586.56;6285065;20;3598202;-52
2023/07/02 02:29:42;;;;;;;;;40.33;35.00;;;;;19.88;100.00;98570.72;6283351;20;3597126;-52
2023/07/02 02:32:10;;;;;;;;;36.33;32.67;;;;;19.90;100.00;98568.66;6314578;20;3582756;-48
2023/07/02 02:34:39;;;;;;;;;35.00;31.33;;;;;19.91;100.00;98564.91;6282568;20;3602487;-49
2023/07/02 02:37:08;;;;;;;;;38.33;34.33;;;;;19.93;100.00;98571.03;6313242;20;3596264;-50
2023/07/02 02:39:37;;;;;;;;;32.67;31.33;;;;;19.89;100.00;98566.97;6281448;20;3602319;-52
2023/07/02 02:42:05;;;;;;;;;31.67;30.67;;;;;19.87;100.00;98571.75;6319556;20;3602718;-47
2023/07/02 02:44:34;;;;;;;;;32.67;31.33;;;;;19.80;100.00;98578.97;6285342;20;3603791;-51
2023/07/02 02:47:04;;;;;;;;;35.00;32.33;;;;;19.83;100.00;98569.59;6282744;20;3580616;-47
2023/07/02 02:49:33;;;;;;;;;38.67;33.67;;;;;19.81;100.00;98577.91;6287080;20;3602349;-52
2023/07/02 02:52:01;;;;;;;;;40.33;35.33;;;;;19.77;100.00;98573.00;6286512;20;3582612;-52
2023/07/02 02:54:30;;;;;;;;;38.33;32.33;;;;;19.56;100.00;98571.75;6282703;20;2836936;-48
2023/07/02 02:56:58;;;;;;;;;41.00;36.00;;;;;19.68;100.00;98574.94;6319205;20;3584748;-48
2023/07/02 02:59:27;;;;;;;;;33.33;30.67;;;;;19.69;100.00;98582.06;6286522;20;3602469;-51
2023/07/02 03:01:55;;;;;;;;;39.67;33.33;;;;;19.63;100.00;98583.63;6288153;20;3590901;-52
2023/07/02 03:04:24;;;;;;;;;36.00;32.33;;;;;19.65;100.00;98586.16;6286794;20;3607638;-48
2023/07/02 03:06:53;;;;;;;;;39.33;34.33;;;;;19.75;100.00;98584.09;6287058;20;3561855;-46
2023/07/02 03:09:22;;;;;;;;;37.33;33.00;;;;;19.58;100.00;98582.47;6316937;20;3607612;-50
2023/07/02 03:11:51;;;;;;;;;40.67;34.00;;;;;19.74;100.00;98579.66;6283176;20;2856665;-47
2023/07/02 03:14:19;;;;;;;;;39.00;34.67;;;;;19.67;100.00;98579.56;6316842;20;3585735;-52
2023/07/02 03:16:47;;;;;;;;;42.50;35.00;;;;;19.54;100.00;98579.25;6282805;20;2853492;-46
2023/07/02 03:19:15;;;;;;;;;38.67;34.67;;;;;19.70;100.00;98584.63;6282633;20;3571079;-48
2023/07/02 03:21:44;;;;;;;;;39.00;34.00;;;;;19.77;100.00;98583.91;6294270;20;2845495;-52
2023/07/02 03:24:13;;;;;;;;;42.67;35.00;;;;;19.64;100.00;98588.06;6315546;20;3605521;-47
2023/07/02 03:26:44;;;;;;;;;39.33;34.33;;;;;19.68;100.00;98580.41;6285827;20;3599234;-47
2023/07/02 03:29:13;;;;;;;;;41.33;35.67;;;;;19.54;100.00;98584.72;6283984;20;3596194;-48
2023/07/02 03:31:41;;;;;;;;;44.33;35.67;;;;;19.55;100.00;98586.38;6284008;20;3598263;-47
2023/07/02 03:34:10;;;;;;;;;41.33;35.67;;;;;19.59;100.00;98587.75;6285772;20;3604468;-48
2023/07/02 03:36:38;;;;;;;;;39.67;34.00;;;;;19.57;100.00;98583.50;6285061;20;3595218;-45
2023/07/02 03:39:07;;;;;;;;;36.33;33.33;;;;;19.44;100.00;98584.06;6285458;20;3591966;-50
2023/07/02 03:41:37;;;;;;;;;41.00;34.33;;;;;19.60;100.00;98591.31;6285289;20;3601304;-53
2023/07/02 03:44:06;;;;;;;;;43.00;35.67;;;;;19.74;100.00;98590.56;6285588;20;3574211;-47
2023/07/02 03:46:35;;;;;;;;;36.00;32.33;;;;;19.81;100.00;98594.25;6280916;20;3607556;-47
2023/07/02 03:49:04;;;;;;;;;38.33;32.67;;;;;19.79;100.00;98593.59;6313701;20;3608787;-49
2023/07/02 03:51:32;;;;;;;;;39.33;34.67;;;;;19.91;100.00;98604.94;6285516;20;3597281;-50
2023/07/02 03:54:01;;;;;;;;;40.33;35.67;;;;;19.95;100.00;98598.91;6279104;20;3585715;-46
2023/07/02 03:56:29;;;;;;;;;39.67;33.67;;;;;20.02;100.00;98596.31;6283491;20;3586711;-49
2023/07/02 03:58:57;;;;;;;;;39.33;33.00;;;;;20.18;100.00;98598.91;6283031;20;3613786;-45
2023/07/02 04:01:25;;;;;;;;;39.33;35.33;;;;;20.10;100.00;98601.72;6285879;20;3588865;-48
2023/07/02 04:03:55;;;;;;;;;38.00;33.00;;;;;20.07;100.00;98603.97;6282344;20;3475374;-46
2023/07/02 04:06:23;;;;;;;;;35.33;32.67;;;;;20.30;100.00;98604.81;6312998;20;3572274;-49
2023/07/02 04:08:51;;;;;;;;;34.00;31.00;;;;;20.37;100.00;98602.19;6287578;20;3599256;-49
2023/07/02 04:11:19;;;;;;;;;42.00;34.67;;;;;20.41;100.00;98613.59;6284597;20;3581530;-48
2023/07/02 04:13:48;;;;;;;;;36.67;33.00;;;;;20.50;100.00;98612.47;6279074;20;2855587;-47
2023/07/02 04:16:17;;;;;;;;;34.67;31.67;;;;;20.49;100.00;98610.78;6317417;20;3600262;-52
2023/07/02 04:18:45;;;;;;;;;34.00;32.00;;;;;20.41;100.00;98617.16;6282462;20;3595170;-46
2023/07/02 04:21:13;;;;;;;;;34.33;32.33;;;;;20.35;100.00;98621.47;6283907;20;3589863;-48
2023/07/02 04:23:41;;;;;;;;;38.00;34.33;;;;;20.59;100.00;98609.50;6280811;20;3584809;-47
2023/07/02 04:26:11;;;;;;;;;45.00;36.00;;;;;20.67;100.00;98624.97;6284245;20;3627431;-47
2023/07/02 04:28:59;;;;;;;;;33.33;31.00;;;;;20.71;100.00;98631.72;6312186;20;3588806;-48
2023/07/02 04:31:28;;;;;;;;;34.67;31.67;;;;;20.86;100.00;98630.91;6284338;20;3604512;-47
2023/07/02 04:33:57;;;;;;;;;37.33;32.33;;;;;20.87;100.00;98635.31;6278520;20;3590843;-51
2023/07/02 04:36:28;;;;;;;;;36.00;32.67;;;;;20.99;100.00;98639.28;6315091;20;3603468;-47
2023/07/02 04:38:57;;;;;;;;;34.67;31.00;;;;;21.03;100.00;98646.06;6284239;20;3604907;-49
2023/07/02 04:41:27;;;;;;;;;33.33;31.00;;;;;21.24;97.69;98637.97;6284301;20;3595464;-48
2023/07/02 04:43:56;;;;;;;;;36.25;31.50;;;;;21.07;97.35;98650.13;6284722;20;3610673;-46
2023/07/02 04:46:25;;;;;;;;;30.67;29.67;;;;;21.19;97.13;98645.88;6311630;20;3594020;-47
2023/07/02 04:48:53;;;;;;;;;30.67;27.33;;;;;21.33;95.97;98646.94;6312392;20;3596137;-50
2023/07/02 04:51:22;;;;;;;;;31.67;29.00;;;;;21.30;95.76;98650.03;6283168;20;3585663;-51
2023/07/02 04:53:50;;;;;;;;;29.33;27.33;;;;;21.65;93.53;98651.16;6282420;20;3588818;-49
2023/07/02 04:56:18;;;;;;;;;24.33;22.67;;;;;21.58;92.67;98661.16;6284433;20;3579385;-49
2023/07/02 04:58:46;;;;;;;;;29.67;26.33;;;;;21.62;91.95;98662.47;6282198;20;3600243;-51
2023/07/02 05:01:14;;;;;;;;;30.00;29.67;;;;;21.79;90.98;98659.50;6282058;20;3594183;-48
2023/07/02 05:03:43;;;;;;;;;25.67;23.67;;;;;21.64;91.44;98665.88;6283194;20;3588895;-48
2023/07/02 05:06:11;;;;;;;;;27.67;26.33;;;;;21.72;90.56;98667.63;6285217;20;3594031;-46
2023/07/02 05:08:39;;;;;;;;;27.33;27.33;;;;;21.82;91.08;98667.31;6279838;20;3603382;-47
2023/07/02 05:11:10;;;;;;;;;26.33;25.00;;;;;21.63;90.35;98666.03;6283047;20;3592971;-50
2023/07/02 05:13:38;;;;;;;;;26.00;24.33;;;;;21.61;90.06;98670.84;6281897;20;3604413;-46
2023/07/02 05:16:06;;;;;;;;;29.33;26.00;;;;;21.56;90.69;98671.41;6280064;20;3601387;-52
2023/07/02 05:18:35;;;;;;;;;24.00;21.33;;;;;21.69;88.82;98668.84;6281048;20;3581510;-49
2023/07/02 05:21:03;;;;;;;;;26.00;23.00;;;;;21.72;88.66;98672.25;6285595;20;3586752;-53
2023/07/02 05:23:31;;;;;;;;;22.67;22.67;;;;;21.81;88.36;98673.84;6284554;20;3590944;-47
2023/07/02 05:25:59;;;;;;;;;24.67;24.67;;;;;21.85;89.33;98678.75;6284917;20;3597157;-51
2023/07/02 05:28:27;;;;;;;;;26.00;24.00;;;;;22.11;87.88;98672.69;6283267;20;3574201;-50
2023/07/02 05:30:56;;;;;;;;;27.00;25.67;;;;;22.11;87.65;98672.69;6284410;20;3592001;-50
2023/07/02 05:33:24;;;;;;;;;28.33;26.00;;;;;22.26;86.91;98683.63;6283664;20;3598247;-48
2023/07/02 05:35:52;;;;;;;;;23.33;22.00;;;;;22.51;85.84;98689.59;6286788;20;3586756;-47
2023/07/02 05:38:21;;;;;;;;;24.00;22.33;;;;;22.39;86.67;98693.03;6285830;20;3572184;-47
2023/07/02 05:40:49;;;;;;;;;23.00;23.00;;;;;22.53;84.76;98694.84;6283513;20;3582675;-52
2023/07/02 05:43:18;;;;;;;;;31.67;30.67;;;;;22.88;82.45;98693.06;6282735;20;3577334;-48
2023/07/02 05:45:46;;;;;;;;;18.33;18.33;;;;;23.12;81.80;98680.00;6284227;20;3567977;-48
2023/07/02 05:48:14;;;;;;;;;17.67;17.67;;;;;23.13;81.39;98685.28;6282432;20;3569047;-48
2023/07/02 05:50:42;;;;;;;;;24.00;23.00;;;;;23.36;80.74;98687.75;6284211;20;3585755;-53
2023/07/02 05:53:10;;;;;;;;;23.67;23.00;;;;;23.32;82.01;98693.81;6280117;20;3575369;-50
2023/07/02 05:55:39;;;;;;;;;20.67;20.67;;;;;23.79;80.35;98692.22;6283371;20;3549219;-51
2023/07/02 05:58:08;;;;;;;;;23.67;21.67;;;;;24.00;79.66;98694.00;6280152;20;2836085;-48
2023/07/02 06:00:38;;;;;;;;;22.33;22.33;;;;;23.65;80.02;98691.28;6313581;20;3579419;-50
2023/07/02 06:03:07;;;;;;;;;21.00;21.00;;;;;23.63;81.28;98696.13;6311537;20;3587862;-50
2023/07/02 06:05:36;;;;;;;;;21.67;21.00;;;;;23.59;80.77;98697.56;6282634;20;3583588;-46
2023/07/02 06:08:04;;;;;;;;;24.00;22.33;;;;;23.75;80.05;98700.00;6285357;20;3584753;-47
2023/07/02 06:10:32;;;;;;;;;22.67;22.67;;;;;23.65;81.09;98696.75;6282572;20;3594027;-52
2023/07/02 06:13:00;;;;;;;;;22.33;21.33;;;;;23.65;81.08;98696.75;6282621;20;3572309;-46
2023/07/02 06:15:29;;;;;;;;;28.50;25.50;;;;;23.56;82.10;98700.72;6284922;20;3602404;-49
2023/07/02 06:17:58;;;;;;;;;20.67;20.67;;;;;23.90;81.67;98707.22;6312926;20;3581653;-49
2023/07/02 06:20:27;;;;;;;;;24.33;21.33;;;;;24.40;77.69;98705.06;6314430;20;3586176;-50
2023/07/02 06:22:55;;;;;;;;;22.67;21.33;;;;;24.87;75.61;98706.84;6283461;20;3565919;-49
2023/07/02 06:25:23;;;;;;;;;23.33;22.00;;;;;24.77;76.05;98698.19;6284035;20;3578459;-50
2023/07/02 06:27:54;;;;;;;;;19.67;18.67;;;;;24.77;74.40;98711.06;6279731;20;3568634;-49
2023/07/02 06:30:22;;;;;;;;;20.67;20.67;;;;;25.03;73.53;98704.75;6289225;20;3568088;-49
2023/07/02 06:32:51;;;;;;;;;20.00;20.00;;;;;25.07;73.44;98708.78;6285302;20;2846403;-49
2023/07/02 06:35:20;;;;;;;;;20.33;17.67;;;;;25.38;70.34;98719.09;6318816;20;3577326;-50
2023/07/02 06:37:48;;;;;;;;;16.00;16.00;;;;;25.28;71.84;98718.72;6289334;20;3579595;-48
2023/07/02 06:40:16;;;;;;;;;22.33;20.33;;;;;25.63;70.32;98719.28;6273819;20;3564868;-53
2023/07/02 06:42:44;;;;;;;;;19.33;19.33;;;;;25.80;69.46;98714.13;6285972;20;3573337;-49
2023/07/02 06:45:13;;;;;;;;;20.00;18.00;;;;;25.80;69.88;98720.50;6285624;20;3565522;-53
2023/07/02 06:47:41;;;;;;;;;22.00;21.33;;;;;26.27;68.75;98728.56;6288399;20;3574230;-52
2023/07/02 06:50:09;;;;;;;;;18.50;17.00;;;;;27.10;66.95;98722.13;6282290;20;2823221;-51
2023/07/02 06:52:37;;;;;;;;;20.33;20.33;;;;;26.57;65.75;98722.50;6283742;20;3568165;-50
2023/07/02 06:55:06;;;;;;;;;18.67;18.00;;;;;27.04;63.69;98723.00;6287447;20;3569102;-47
2023/07/02 06:57:34;;;;;;;;;18.33;18.33;;;;;26.94;64.47;98723.53;6287743;20;3581700;-51
2023/07/02 07:00:03;;;;;;;;;16.33;16.33;;;;;26.41;64.72;98726.59;6285125;20;3569052;-51
2023/07/02 07:02:31;;;;;;;;;19.00;19.00;;;;;26.28;64.69;98730.28;6284143;20;3570165;-52
2023/07/02 07:04:59;;;;;;;;;17.67;17.67;;;;;26.88;64.51;98739.06;6285730;20;3573257;-53
2023/07/02 07:07:29;;;;;;;;;19.67;19.67;;;;;26.90;64.61;98734.13;6287511;20;2839861;-53
2023/07/02 07:09:57;;;;;;;;;18.00;18.00;;;;;26.58;65.49;98735.22;6316955;20;3570071;-53
2023/07/02 07:12:26;;;;;;;;;19.67;17.00;;;;;26.31;67.64;98735.34;6282543;20;2839982;-53
2023/07/02 07:14:54;;;;;;;;;21.33;19.00;;;;;25.84;66.54;98732.78;6315507;20;3570082;-51
2023/07/02 07:17:23;;;;;;;;;18.33;17.00;;;;;26.36;66.62;98738.28;6289176;20;3575402;-53
2023/07/02 07:19:51;;;;;;;;;18.67;17.33;;;;;26.66;66.37;98737.72;6285417;20;3568996;-48
2023/07/02 07:22:19;;;;;;;;;18.33;18.33;;;;;27.70;62.84;98743.63;6288943;20;3566025;-48
2023/07/02 07:24:47;;;;;;;;;19.67;17.33;;;;;28.89;59.18;98742.13;6286653;20;3561711;-56
2023/07/02 07:27:16;;;;;;;;;16.67;16.33;;;;;28.70;57.42;98759.88;6282987;20;2829632;-50
2023/07/02 07:29:44;;;;;;;;;18.00;18.00;;;;;28.03;59.07;98754.31;6313943;20;3569033;-48
2023/07/02 07:32:13;;;;;;;;;17.00;16.00;;;;;28.29;58.96;98753.16;6284208;20;3563923;-51
2023/07/02 07:34:41;;;;;;;;;19.33;17.67;;;;;29.02;56.21;98770.66;6286762;20;3555490;-51
2023/07/02 07:37:09;;;;;;;;;18.33;18.33;;;;;29.07;55.34;98766.13;6280988;20;3579420;-48
2023/07/02 07:39:37;;;;;;;;;16.67;16.67;;;;;29.72;52.84;98772.69;6282876;20;3579502;-50
2023/07/02 07:42:06;;;;;;;;;17.33;15.33;;;;;29.01;54.51;98766.19;6278508;20;3558638;-48
2023/07/02 07:44:34;;;;;;;;;16.50;16.00;;;;;28.40;57.13;98762.56;6276387;20;2821183;-50
2023/07/02 07:47:02;;;;;;;;;18.33;18.33;;;;;27.93;57.36;98765.88;6279912;20;3574276;-53
2023/07/02 07:49:30;;;;;;;;;15.67;15.33;;;;;27.45;59.26;98757.47;6279616;20;3552485;-52
2023/07/02 07:51:58;;;;;;;;;14.00;14.00;;;;;27.44;59.35;98755.78;6278180;20;3534851;-50
2023/07/02 07:54:27;;;;;;;;;17.33;17.33;;;;;27.61;59.18;98761.56;6314349;20;3562759;-51
2023/07/02 07:56:55;;;;;;;;;14.50;14.50;;;;;27.30;58.20;98768.81;6282709;20;2814944;-54
2023/07/02 07:59:23;;;;;;;;;17.00;15.67;;;;;27.53;57.86;98766.28;6286257;20;3562841;-52
2023/07/02 08:01:51;;;;;;;;;17.00;16.00;;;;;27.77;56.46;98760.94;6283218;20;3562805;-47
2023/07/02 08:04:19;;;;;;;;;15.00;15.00;;;;;27.60;57.28;98771.75;6283862;20;3544434;-49
2023/07/02 08:06:47;;;;;;;;;15.00;15.00;;;;;27.71;57.48;98768.22;6316506;20;3553481;-50
2023/07/02 08:09:16;;;;;;;;;16.33;16.33;;;;;27.50;57.26;98763.16;6282692;20;3563882;-53
2023/07/02 08:11:44;;;;;;;;;15.00;15.00;;;;;27.90;56.82;98771.03;6284938;20;3542080;-53
2023/07/02 08:14:13;;;;;;;;;15.67;14.67;;;;;28.72;54.49;98770.66;6308631;20;3552396;-56
2023/07/02 08:16:41;;;;;;;;;17.00;15.67;;;;;29.67;52.72;98770.63;6281242;20;3550289;-54
2023/07/02 08:19:09;;;;;;;;;18.00;14.00;;;;;29.59;51.23;98770.13;6311949;20;2818025;-51
2023/07/02 08:21:38;;;;;;;;;13.67;13.00;;;;;29.77;50.97;98772.81;6285557;20;3532666;-49
2023/07/02 08:24:06;;;;;;;;;15.00;15.00;;;;;29.78;49.54;98781.94;6308324;20;2804560;-52
2023/07/02 08:26:34;;;;;;;;;12.33;12.33;;;;;30.11;47.38;98781.31;6277907;20;3511868;-50
2023/07/02 08:29:02;;;;;;;;;14.67;14.67;;;;;29.57;47.48;98787.00;6281196;20;2483646;-46
2023/07/02 08:31:30;;;;;;;;;14.00;14.00;;;;;29.23;49.14;98777.56;6310293;20;3533658;-46
2023/07/02 08:33:58;;;;;;;;;13.00;11.67;;;;;29.18;46.69;98778.28;6314313;20;2489920;-49
2023/07/02 08:36:26;;;;;;;;;10.67;10.67;;;;;29.77;45.77;98774.72;6315577;20;2488014;-45
2023/07/02 08:38:54;;;;;;;;;13.00;11.33;;;;;30.28;45.48;98779.50;6308655;20;3522374;-45
2023/07/02 08:41:23;;;;;;;;;13.00;12.00;;;;;30.32;45.10;98783.44;6280974;20;3528534;-47
2023/07/02 08:43:56;;;;;;;;;10.00;10.00;;;;;30.49;45.02;98779.91;6279369;20;3515888;-49
2023/07/02 08:46:24;;;;;;;;;9.33;7.00;;;;;30.76;45.19;98782.94;6312869;20;2757669;-51
2023/07/02 08:48:52;;;;;;;;;13.33;11.00;;;;;30.42;45.90;98782.00;6318887;20;2787904;-52
2023/07/02 08:51:20;;;;;;;;;7.00;7.00;;;;;29.81;40.16;98787.00;6314294;20;2747162;-55
2023/07/02 08:53:48;;;;;;;;;9.00;9.00;;;;;30.27;41.53;98791.66;6310019;20;2744166;-47
2023/07/02 08:56:16;;;;;;;;;8.33;8.33;;;;;30.30;40.62;98795.88;6319111;20;2754446;-50
2023/07/02 08:58:44;;;;;;;;;10.00;10.00;;;;;29.81;44.00;98792.56;6310318;20;3497236;-46
2023/07/02 09:01:14;;;;;;;;;10.33;10.33;;;;;29.46;45.19;98794.16;6286898;20;2796297;-52
2023/07/02 09:03:42;;;;;;;;;11.00;11.00;;;;;30.25;42.42;98796.59;6311878;20;3500280;-49
2023/07/02 09:06:12;;;;;;;;;10.67;10.33;;;;;29.62;44.13;98805.59;6309136;20;3513938;-49
2023/07/02 09:08:40;;;;;;;;;10.67;10.67;;;;;28.99;46.69;98793.19;6278066;20;3497175;-52
2023/07/02 09:11:17;;;;;;;;;9.00;8.00;;;;;29.71;43.16;98804.22;6289908;20;2756645;-50
2023/07/02 09:13:52;;;;;;;;;8.33;8.33;;;;;30.00;43.58;98796.84;6311923;20;2754495;-50
2023/07/02 09:16:21;;;;;;;;;9.67;9.33;;;;;29.06;45.50;98792.06;6312524;20;3490917;-54
2023/07/02 09:19:03;;;;;;;;;12.00;12.00;;;;;29.01;44.87;98800.19;6313555;20;2483587;-47
2023/07/02 09:21:46;;;;;;;;;12.33;12.00;;;;;28.88;45.57;98798.50;6313527;20;3510679;-50
2023/07/02 09:24:23;;;;;;;;;8.33;8.33;;;;;30.49;41.69;98804.84;6279671;20;2764988;-49
2023/07/02 09:26:53;;;;;;;;;9.00;9.00;;;;;30.25;42.20;98802.13;6317337;20;2479443;-49
2023/07/02 09:29:28;;;;;;;;;11.00;11.00;;;;;31.08;39.75;98797.16;6311424;20;3520196;-48
2023/07/02 09:31:59;;;;;;;;;9.00;9.00;;;;;30.91;39.38;98801.81;6321125;20;2761788;-48
2023/07/02 09:34:41;;;;;;;;;10.33;9.33;;;;;30.37;38.83;98802.94;6318459;20;2780551;-50
2023/07/02 09:37:10;;;;;;;;;9.00;8.00;;;;;30.96;38.36;98801.91;6314856;20;2754463;-54
2023/07/02 09:39:39;;;;;;;;;11.00;9.33;;;;;31.73;38.55;98806.00;6305476;20;2785717;-53
2023/07/02 09:42:10;;;;;;;;;7.67;7.33;;;;;31.67;36.59;98800.38;6313524;20;3465932;-50
2023/07/02 09:44:40;;;;;;;;;9.33;8.33;;;;;31.57;36.43;98805.78;6315307;20;2757597;-52
2023/07/02 09:47:09;;;;;;;;;10.33;9.00;;;;;30.98;37.57;98808.06;6307689;20;3484627;-49
2023/07/02 09:49:59;;;;;;;;;9.00;9.00;;;;;31.03;38.45;98810.91;6312889;20;2756044;-51
2023/07/02 09:52:28;;;;;;;;;9.00;8.00;;;;;31.87;36.35;98818.44;6311110;20;2746250;-53
2023/07/02 09:54:56;;;;;;;;;11.67;10.33;;;;;31.41;37.46;98815.78;6309382;20;3524320;-50
2023/07/02 09:57:24;;;;;;;;;9.33;8.00;;;;;30.33;38.29;98817.53;6319432;20;2758155;-50
2023/07/02 09:59:52;;;;;;;;;10.00;9.67;;;;;30.47;38.26;98824.50;6306339;20;3488798;-52
2023/07/02 10:02:21;;;;;;;;;7.67;7.67;;;;;30.19;38.36;98820.53;6308067;20;3451728;-53
2023/07/02 10:04:54;;;;;;;;;7.67;7.67;;;;;30.04;38.25;98819.34;6321075;20;2744041;-52
2023/07/02 10:07:32;;;;;;;;;10.00;8.00;;;;;30.47;37.43;98824.50;6319735;20;2766042;-50
2023/07/02 10:10:00;;;;;;;;;10.67;9.00;;;;;30.39;39.42;98817.41;6315618;20;3486795;-53
2023/07/02 10:12:30;;;;;;;;;11.33;11.33;;;;;30.38;39.58;98820.41;6317745;20;2771457;-51
2023/07/02 10:14:59;;;;;;;;;7.67;7.67;;;;;30.74;38.01;98808.13;6321645;20;2747259;-50
2023/07/02 10:17:32;;;;;;;;;12.33;8.67;;;;;31.24;37.95;98821.28;6320722;20;2760701;-53
2023/07/02 10:20:16;;;;;;;;;11.33;8.67;;;;;30.49;39.33;98818.69;6311761;20;3483589;-50
2023/07/02 10:22:47;;;;;;;;;13.67;10.00;;;;;30.06;38.38;98814.41;6322789;20;2788925;-52
2023/07/02 10:25:26;;;;;;;;;9.67;8.00;;;;;30.87;37.78;98812.56;6315288;20;3480513;-54
2023/07/02 10:27:54;;;;;;;;;9.00;9.00;;;;;31.03;37.57;98814.53;6316237;20;2750396;-52
2023/07/02 10:30:38;;;;;;;;;9.00;9.00;;;;;30.62;36.47;98815.63;6310236;20;2752462;-50
2023/07/02 10:33:14;;;;;;;;;9.00;9.00;;;;;31.50;36.38;98818.97;6311035;20;3473228;-55
2023/07/02 10:35:47;;;;;;;;;11.00;9.33;;;;;30.14;36.63;98814.03;6317207;20;2781525;-55
2023/07/02 10:38:21;;;;;;;;;10.00;9.00;;;;;30.29;36.35;98811.63;6313891;20;2761841;-51
2023/07/02 10:41:02;;;;;;;;;8.67;8.67;;;;;30.64;36.28;98816.22;6314555;20;3456525;-50
2023/07/02 10:43:32;;;;;;;;;10.00;8.33;;;;;30.64;36.44;98805.16;6315333;20;2767005;-51
2023/07/02 10:46:01;;;;;;;;;9.00;9.00;;;;;31.32;36.26;98813.66;6320134;20;2563830;-55
2023/07/02 10:48:31;;;;;;;;;7.80;6.00;;;;;30.62;37.54;98810.97;6339655;20;2757586;-55
2023/07/02 10:50:59;;;;;;;;;11.67;11.67;;;;;30.30;38.75;98802.22;6283157;20;3531221;-50
2023/07/02 10:53:27;;;;;;;;;11.67;11.67;;;;;30.47;39.20;98801.50;6287859;20;3505613;-53
2023/07/02 10:55:56;;;;;;;;;10.33;10.33;;;;;30.76;39.10;98792.09;6313697;20;3491965;-56
2023/07/02 10:58:25;;;;;;;;;13.33;11.33;;;;;30.40;39.71;98798.84;6313418;20;3512892;-53
2023/07/02 11:00:54;;;;;;;;;12.33;12.33;;;;;30.96;40.53;98801.91;6314851;20;3510799;-52
2023/07/02 11:03:26;;;;;;;;;10.33;9.67;;;;;31.10;38.85;98800.53;6281974;20;3501293;-52
2023/07/02 11:05:55;;;;;;;;;14.00;12.50;;;;;29.60;39.11;98797.56;6278879;20;2806710;-53
2023/07/02 11:08:35;;;;;;;;;12.00;10.00;;;;;29.30;40.11;98792.09;6291973;20;2788821;-52
2023/07/02 11:11:07;;;;;;;;;14.00;11.00;;;;;29.81;41.71;98782.31;6318323;20;3512812;-54